Terminal Aerodrome Forecast
Issued by NWS

Home | Current Version | Previous Version | Text Only | Print | Product List | Glossary On
Versions: 1 2 3 4 5 6 7 8 9 10 11 12 13 14 15 16
000
FTUS46 KEKA 042016 AAA
TAFUKI
TAF AMD
KUKI 042016Z 0420/0518 18005KT P6SM -SHRA SCT030 BKN100 OVC200
     FM050100 31004KT P6SM VCSH OVC035
     FM050900 15005KT 6SM BR VCSH BKN025=

USA.gov is the U.S. government's official web portal to all federal, state and local government web resources and services.